Time;durP1;ratioP1;P1;durP2;ratioP2;P2;SDS_P1;SDS_P2;PMS_P1;PMS_P2;Temp;Humidity;BMP_temperature;BMP_pressure;BME280_temperature;BME280_humidity;BME280_pressure;Samples;Min_cycle;Max_cycle;Signal;HPM_P1;HPM_P2
2023/08/05 00:01:19;;;;;;;7.95;5.03;;;;;;;14.56;100.00;101698.59;4917230;29;20431;-78
2023/08/05 00:03:44;;;;;;;9.05;4.82;;;;;;;14.56;100.00;101699.44;4917037;29;20099;-79
2023/08/05 00:06:10;;;;;;;8.32;5.25;;;;;;;14.58;100.00;101694.13;4917015;29;20107;-79
2023/08/05 00:08:35;;;;;;;9.95;4.78;;;;;;;14.46;100.00;101668.94;4917087;29;20036;-79
2023/08/05 00:11:01;;;;;;;10.40;4.88;;;;;;;14.56;100.00;101688.19;4917104;29;20020;-78
2023/08/05 00:13:26;;;;;;;8.65;5.40;;;;;;;14.23;100.00;101634.84;4917121;29;20107;-79
2023/08/05 00:15:51;;;;;;;12.95;5.75;;;;;;;14.55;100.00;101689.97;4916966;29;20158;-79
2023/08/05 00:18:17;;;;;;;9.93;5.28;;;;;;;14.54;100.00;101675.28;4916857;29;20118;-79
2023/08/05 00:20:42;;;;;;;11.63;6.43;;;;;;;14.34;100.00;101650.56;4916695;29;20523;-78
2023/08/05 00:23:07;;;;;;;10.57;5.47;;;;;;;14.52;100.00;101684.94;4916602;29;20036;-78
2023/08/05 00:25:33;;;;;;;8.68;5.07;;;;;;;14.51;100.00;101677.25;4916775;29;20024;-78
2023/08/05 00:27:58;;;;;;;9.15;5.22;;;;;;;14.50;100.00;101675.59;4916756;29;20095;-78
2023/08/05 00:30:23;;;;;;;10.57;5.47;;;;;;;14.37;100.00;101661.72;4916675;29;20036;-79
2023/08/05 00:32:48;;;;;;;8.13;5.35;;;;;;;14.42;100.00;101657.03;4916884;29;20064;-78
2023/08/05 00:35:14;;;;;;;11.20;5.50;;;;;;;14.37;100.00;101652.16;4916616;29;20039;-79
2023/08/05 00:37:39;;;;;;;9.10;4.90;;;;;;;14.44;100.00;101665.56;4916430;29;20032;-79
2023/08/05 00:40:05;;;;;;;9.25;5.32;;;;;;;14.42;100.00;101657.88;4916553;29;20059;-79
2023/08/05 00:42:31;;;;;;;8.82;4.72;;;;;;;14.10;100.00;101618.41;4916601;29;20467;-79
2023/08/05 00:44:56;;;;;;;8.35;5.13;;;;;;;14.40;100.00;101662.34;4898663;29;20039;-79
2023/08/05 00:47:22;;;;;;;16.95;5.20;;;;;;;14.39;100.00;101670.25;4916526;29;20050;-79
2023/08/05 00:49:49;;;;;;;9.07;5.22;;;;;;;14.28;100.00;101657.97;4916488;29;20131;-78
2023/08/05 00:52:17;;;;;;;10.82;5.35;;;;;;;14.34;100.00;101658.38;4916324;29;20119;-78
2023/08/05 00:54:43;;;;;;;8.38;5.63;;;;;;;14.18;100.00;101626.53;4916696;29;20162;-79
2023/08/05 00:57:11;;;;;;;9.43;5.65;;;;;;;14.14;100.00;101626.81;4916488;29;20029;-78
2023/08/05 00:59:36;;;;;;;9.38;5.32;;;;;;;14.28;100.00;101639.78;4916130;29;20036;-78
2023/08/05 01:02:02;;;;;;;9.93;5.43;;;;;;;14.05;100.00;101599.69;4916358;29;20497;-79
2023/08/05 01:04:27;;;;;;;9.18;5.63;;;;;;;14.04;100.00;101609.25;4916329;29;20031;-79
2023/08/05 01:06:53;;;;;;;7.97;5.00;;;;;;;13.90;100.00;101606.72;4898757;29;20487;-79
2023/08/05 01:09:18;;;;;;;8.18;5.25;;;;;;;14.03;100.00;101643.13;4916371;29;20020;-78
2023/08/05 01:11:44;;;;;;;10.10;5.38;;;;;;;13.93;100.00;101629.88;4917955;29;20040;-78
2023/08/05 01:14:09;;;;;;;8.15;4.78;;;;;;;13.86;100.00;101617.38;4903217;29;20451;-79
2023/08/05 01:16:34;;;;;;;7.70;4.80;;;;;;;13.82;100.00;101608.97;4920133;29;20108;-79
2023/08/05 01:19:04;;;;;;;7.75;4.78;;;;;;;13.80;100.00;101626.41;4920049;29;20032;-77
2023/08/05 01:21:47;;;;;;;9.07;5.80;;;;;;;13.56;100.00;101597.66;4919850;29;20542;-79
2023/08/05 01:24:34;;;;;;;12.35;5.50;;;;;;;13.66;100.00;101622.09;4919862;29;20032;-77
2023/08/05 01:27:01;;;;;;;7.93;4.95;;;;;;;13.54;100.00;101617.69;4919954;29;20020;-79
2023/08/05 01:29:26;;;;;;;8.57;5.72;;;;;;;13.37;100.00;101602.31;4920070;29;20051;-78
2023/08/05 01:31:53;;;;;;;8.88;5.28;;;;;;;13.41;100.00;101620.22;4919786;29;20071;-78
2023/08/05 01:34:18;;;;;;;7.97;5.30;;;;;;;13.33;100.00;101624.19;4919917;29;20705;-79
2023/08/05 01:36:43;;;;;;;9.50;5.97;;;;;;;13.39;100.00;101627.25;4920295;29;20032;-79
2023/08/05 01:39:08;;;;;;;13.32;6.22;;;;;;;13.20;100.00;101598.19;4919648;29;20024;-79
2023/08/05 01:41:34;;;;;;;10.02;6.50;;;;;;;13.21;100.00;101599.88;4919660;29;20426;-78
2023/08/05 01:43:59;;;;;;;12.25;6.22;;;;;;;13.28;100.00;101619.31;4919619;29;20028;-78
2023/08/05 01:46:24;;;;;;;12.38;6.72;;;;;;;13.39;100.00;101635.03;4919713;29;20040;-79
2023/08/05 01:48:50;;;;;;;10.60;6.28;;;;;;;13.27;100.00;101601.22;4919589;29;20032;-79
2023/08/05 01:51:15;;;;;;;10.43;6.47;;;;;;;13.39;100.00;101621.25;4919633;29;20031;-77
2023/08/05 01:53:40;;;;;;;10.60;6.88;;;;;;;13.33;100.00;101608.63;4919428;29;20375;-79
2023/08/05 01:56:06;;;;;;;12.38;7.18;;;;;;;13.38;100.00;101624.78;4917190;29;20036;-79
2023/08/05 01:58:31;;;;;;;10.38;6.85;;;;;;;13.42;100.00;101626.22;4919339;29;20451;-77
2023/08/05 02:00:56;;;;;;;10.80;6.63;;;;;;;13.40;100.00;101617.72;4919551;29;20071;-78
2023/08/05 02:03:22;;;;;;;11.90;6.28;;;;;;;13.36;100.00;101606.69;4919391;29;20419;-79
2023/08/05 02:05:47;;;;;;;9.48;6.47;;;;;;;13.40;100.00;101623.75;4919245;29;20115;-79
2023/08/05 02:08:12;;;;;;;8.27;6.82;;;;;;;13.38;100.00;101623.00;4919095;29;20028;-78
2023/08/05 02:10:40;;;;;;;9.55;6.60;;;;;;;13.30;100.00;101621.81;4919234;29;20043;-78
2023/08/05 02:13:05;;;;;;;9.43;7.25;;;;;;;13.33;100.00;101619.00;4919040;29;20024;-77
2023/08/05 02:15:30;;;;;;;13.18;6.95;;;;;;;13.34;100.00;101625.88;4934556;29;20034;-77
2023/08/05 02:17:56;;;;;;;11.85;7.63;;;;;;;13.32;100.00;101610.41;4937985;29;20039;-78
2023/08/05 02:20:21;;;;;;;11.35;7.50;;;;;;;13.39;100.00;101622.06;4937756;29;20119;-78
2023/08/05 02:22:46;;;;;;;14.05;7.47;;;;;;;13.40;100.00;101612.53;4937701;29;20032;-78
2023/08/05 02:25:12;;;;;;;11.90;7.80;;;;;;;13.44;100.00;101611.41;4937992;29;20074;-78
2023/08/05 02:27:37;;;;;;;11.55;8.20;;;;;;;13.44;100.00;101608.81;4937873;29;20512;-77
2023/08/05 02:30:02;;;;;;;12.82;7.57;;;;;;;13.25;100.00;101579.75;4937875;29;20207;-78
2023/08/05 02:32:28;;;;;;;11.18;6.80;;;;;;;13.46;100.00;101612.97;4937843;29;20036;-78
2023/08/05 02:34:53;;;;;;;11.52;7.18;;;;;;;13.45;100.00;101613.06;4937819;29;20036;-79
2023/08/05 02:37:19;;;;;;;11.23;7.68;;;;;;;13.46;100.00;101597.38;4937538;29;20032;-78
2023/08/05 02:39:44;;;;;;;10.60;7.45;;;;;;;13.44;100.00;101588.03;4937499;29;20031;-78
2023/08/05 02:42:09;;;;;;;10.27;7.70;;;;;;;13.53;100.00;101600.44;4937619;29;20024;-78
2023/08/05 02:44:34;;;;;;;11.30;7.93;;;;;;;13.53;100.00;101589.22;4937716;29;20024;-77
2023/08/05 02:47:00;;;;;;;11.40;7.93;;;;;;;13.59;100.00;101596.63;4937583;29;20036;-79
2023/08/05 02:49:26;;;;;;;13.10;8.05;;;;;;;13.64;100.00;101602.34;4937531;29;20118;-79
2023/08/05 02:51:51;;;;;;;11.13;7.63;;;;;;;13.69;100.00;101608.09;4937268;29;20028;-77
2023/08/05 02:54:17;;;;;;;12.77;7.93;;;;;;;13.70;100.00;101597.63;4937369;29;20470;-77
2023/08/05 02:56:42;;;;;;;13.00;8.57;;;;;;;13.40;100.00;101561.47;4937396;29;20028;-77
2023/08/05 02:59:07;;;;;;;11.27;8.07;;;;;;;13.69;100.00;101597.72;4937223;29;20036;-78
2023/08/05 03:01:35;;;;;;;14.82;8.63;;;;;;;13.62;100.00;101583.47;4935657;29;20047;-79
2023/08/05 03:04:02;;;;;;;12.48;8.20;;;;;;;13.55;100.00;101571.78;4937238;29;20505;-79
2023/08/05 03:06:28;;;;;;;11.93;8.50;;;;;;;13.63;100.00;101592.91;4936931;29;20058;-79
2023/08/05 03:08:53;;;;;;;13.10;7.70;;;;;;;13.60;100.00;101586.16;4936979;29;20083;-79
2023/08/05 03:11:18;;;;;;;11.00;8.23;;;;;;;13.39;100.00;101559.81;4937469;29;20067;-79
2023/08/05 03:13:44;;;;;;;11.95;8.43;;;;;;;13.49;100.00;101573.03;4937135;29;20561;-78
2023/08/05 03:16:11;;;;;;;10.43;7.93;;;;;;;13.33;100.00;101557.59;4937053;29;20058;-78
2023/08/05 03:18:36;;;;;;;11.25;8.02;;;;;;;13.25;100.00;101559.00;4929071;29;20043;-79
2023/08/05 03:21:02;;;;;;;14.30;8.98;;;;;;;13.30;100.00;101570.75;4937051;29;20069;-78
2023/08/05 03:23:27;;;;;;;12.43;8.98;;;;;;;13.09;100.00;101533.16;4936777;29;20039;-79
2023/08/05 03:25:53;;;;;;;13.07;9.45;;;;;;;13.15;100.00;101546.56;4936712;29;20177;-79
2023/08/05 03:28:19;;;;;;;12.13;8.30;;;;;;;13.14;100.00;101544.91;4937134;29;20091;-79
2023/08/05 03:30:44;;;;;;;13.55;8.95;;;;;;;12.89;100.00;101513.66;4936772;29;20422;-79
2023/08/05 03:33:09;;;;;;;11.93;9.02;;;;;;;13.13;100.00;101548.44;4936007;29;20127;-79
2023/08/05 03:35:34;;;;;;;14.20;8.82;;;;;;;12.96;100.00;101527.88;4936684;29;20034;-79
2023/08/05 03:38:01;;;;;;;11.52;7.95;;;;;;;13.10;100.00;101563.34;4936619;29;20059;-79
2023/08/05 03:40:26;;;;;;;11.30;8.70;;;;;;;13.05;100.00;101555.00;4936447;29;20095;-79
2023/08/05 03:42:52;;;;;;;13.38;8.57;;;;;;;13.01;100.00;101551.78;4936562;29;20070;-78
2023/08/05 03:45:17;;;;;;;13.02;9.55;;;;;;;12.94;100.00;101542.72;4936558;29;20107;-79
2023/08/05 03:47:42;;;;;;;12.60;8.95;;;;;;;12.96;100.00;101540.03;4936378;29;20035;-79
2023/08/05 03:50:08;;;;;;;12.93;9.00;;;;;;;12.75;100.00;101508.47;4936409;29;20056;-78
2023/08/05 03:52:34;;;;;;;13.02;8.52;;;;;;;12.81;100.00;101510.72;4936383;29;20094;-77
2023/08/05 03:54:59;;;;;;;12.00;9.00;;;;;;;12.72;100.00;101500.91;4936077;29;20401;-78
2023/08/05 03:57:25;;;;;;;11.13;8.85;;;;;;;12.84;100.00;101526.88;4919408;29;20126;-77
2023/08/05 03:59:50;;;;;;;13.02;9.00;;;;;;;12.82;100.00;101520.97;4936293;29;20067;-77
2023/08/05 04:02:16;;;;;;;11.88;8.82;;;;;;;12.81;100.00;101516.72;4936373;29;20024;-77
2023/08/05 04:04:42;;;;;;;11.60;8.95;;;;;;;12.72;100.00;101506.09;4919024;29;20545;-77
2023/08/05 04:07:08;;;;;;;11.57;8.48;;;;;;;12.78;100.00;101524.69;4936067;29;20063;-77
2023/08/05 04:09:35;;;;;;;12.50;9.10;;;;;;;12.70;100.00;101500.16;4935862;29;20106;-77
2023/08/05 04:12:03;;;;;;;12.23;8.95;;;;;;;12.75;100.00;101509.31;4935855;29;20024;-77
2023/08/05 04:14:29;;;;;;;13.20;8.90;;;;;;;12.71;100.00;101507.84;4935926;29;20038;-77
2023/08/05 04:16:55;;;;;;;14.57;9.50;;;;;;;12.68;100.00;101497.66;4918958;29;20043;-77
2023/08/05 04:19:22;;;;;;;16.15;9.82;;;;;;;12.81;100.00;101526.25;4936129;29;20115;-77
2023/08/05 04:21:47;;;;;;;13.95;10.52;;;;;;;12.85;100.00;101525.13;4935974;29;20054;-77
2023/08/05 04:24:13;;;;;;;14.18;10.70;;;;;;;12.86;100.00;101524.19;4935816;29;20035;-77
2023/08/05 04:26:40;;;;;;;13.45;10.32;;;;;;;12.92;100.00;101506.50;4935873;29;20089;-77
2023/08/05 04:29:05;;;;;;;13.75;9.90;;;;;;;12.92;100.00;101498.75;4936066;29;20028;-77
2023/08/05 04:31:31;;;;;;;15.82;11.23;;;;;;;12.68;100.00;101448.41;4936082;29;20051;-77
2023/08/05 04:33:56;;;;;;;15.48;10.80;;;;;;;13.00;100.00;101493.09;4935740;29;20027;-77
2023/08/05 04:36:22;;;;;;;15.07;10.63;;;;;;;13.04;100.00;101480.75;4935811;29;20366;-77
2023/08/05 04:38:47;;;;;;;14.02;10.07;;;;;;;12.95;100.00;101456.22;4935715;29;20469;-77
2023/08/05 04:41:12;;;;;;;15.73;10.30;;;;;;;12.99;100.00;101460.31;4935529;29;20645;-76
2023/08/05 04:43:38;;;;;;;14.80;10.52;;;;;;;13.13;100.00;101475.00;4918428;29;20122;-78
2023/08/05 04:46:03;;;;;;;13.25;9.82;;;;;;;12.97;100.00;101444.00;4935570;29;20118;-78
2023/08/05 04:48:28;;;;;;;16.42;10.23;;;;;;;13.08;100.00;101461.50;4935624;29;20023;-77
2023/08/05 04:50:55;;;;;;;16.75;10.57;;;;;;;13.16;100.00;101472.19;4918666;29;20036;-77
2023/08/05 04:53:20;;;;;;;16.85;10.98;;;;;;;13.16;100.00;101477.38;4935651;29;20032;-77
2023/08/05 04:55:46;;;;;;;14.15;10.40;;;;;;;13.16;100.00;101477.38;4918334;29;20032;-78
2023/08/05 04:58:11;;;;;;;16.98;10.85;;;;;;;12.94;100.00;101436.44;4935234;29;20161;-78
2023/08/05 05:00:37;;;;;;;16.42;11.60;;;;;;;13.16;100.00;101470.44;4935487;29;20102;-77
2023/08/05 05:03:02;;;;;;;15.93;11.13;;;;;;;13.16;100.00;101470.44;4935625;29;20392;-77
2023/08/05 05:05:32;;;;;;;17.00;11.20;;;;;;;13.22;100.00;101476.19;4935452;29;20078;-78
2023/08/05 05:07:58;;;;;;;14.33;10.53;;;;;;;13.30;100.00;101479.16;4935195;29;20035;-78
2023/08/05 05:10:23;;;;;;;14.48;10.63;;;;;;;13.15;100.00;101442.00;4933737;29;20134;-79
2023/08/05 05:12:49;;;;;;;14.23;10.45;;;;;;;13.46;100.00;101478.03;4918380;29;20028;-77
2023/08/05 05:15:15;;;;;;;13.25;10.68;;;;;;;13.48;100.00;101470.19;4935286;29;20046;-77
2023/08/05 05:17:40;;;;;;;14.77;10.57;;;;;;;13.27;100.00;101438.66;4935347;29;20102;-77
2023/08/05 05:20:06;;;;;;;14.68;10.35;;;;;;;13.46;100.00;101457.28;4918143;29;20035;-78
2023/08/05 05:22:32;;;;;;;15.10;11.48;;;;;;;13.47;100.00;101464.16;4935199;29;20043;-77
2023/08/05 05:24:58;;;;;;;14.05;10.30;;;;;;;13.32;100.00;101423.63;4935149;29;20438;-78
2023/08/05 05:27:23;;;;;;;13.30;10.27;;;;;;;13.53;100.00;101462.09;4934714;29;20036;-77
2023/08/05 05:29:48;;;;;;;16.70;10.45;;;;;;;13.35;100.00;101441.59;4935291;29;20079;-77
2023/08/05 05:32:14;;;;;;;15.10;11.25;;;;;;;13.60;100.00;101469.38;4935171;29;20120;-77
2023/08/05 05:34:39;;;;;;;23.17;11.48;;;;;;;13.67;100.00;101467.22;4935060;29;20142;-76
2023/08/05 05:37:04;;;;;;;17.25;10.98;;;;;;;13.70;100.00;101462.66;4935039;29;20074;-76
2023/08/05 05:39:30;;;;;;;16.13;11.65;;;;;;;13.52;100.00;101426.69;4934924;29;20075;-75
2023/08/05 05:41:55;;;;;;;18.55;11.20;;;;;;;13.82;100.00;101455.81;4934762;29;20551;-76
2023/08/05 05:44:22;;;;;;;15.80;11.85;;;;;;;13.89;100.00;101449.28;4933773;29;20036;-76
2023/08/05 05:46:47;;;;;;;17.30;11.57;;;;;;;14.04;100.00;101456.03;4935131;29;20082;-75
2023/08/05 05:49:14;;;;;;;15.90;11.70;;;;;;;14.15;100.00;101449.28;4934860;29;20039;-75
2023/08/05 05:51:42;;;;;;;16.63;11.05;;;;;;;14.34;100.00;101457.47;4935109;29;20032;-76
2023/08/05 05:54:07;;;;;;;16.45;12.15;;;;;;;14.41;100.00;101450.91;4934745;29;20163;-75
2023/08/05 05:56:32;;;;;;;16.27;11.75;;;;;;;14.53;100.00;101447.50;4936227;29;20102;-76
2023/08/05 05:58:58;;;;;;;18.50;11.65;;;;;;;14.64;100.00;101431.16;4938227;29;20038;-75
2023/08/05 06:01:24;;;;;;;17.90;11.80;;;;;;;15.02;100.00;101440.59;4938379;29;20501;-76
2023/08/05 06:03:50;;;;;;;14.55;11.15;;;;;;;15.23;100.00;101443.41;4938501;29;20040;-75
2023/08/05 06:06:15;;;;;;;14.23;10.88;;;;;;;15.74;100.00;101438.81;4938487;29;20477;-76
2023/08/05 06:08:41;;;;;;;14.98;10.95;;;;;;;16.08;100.00;101446.66;4938153;29;20039;-75
2023/08/05 06:11:07;;;;;;;13.60;11.05;;;;;;;15.91;100.00;101419.28;4938302;29;20524;-76
2023/08/05 06:13:32;;;;;;;14.93;11.18;;;;;;;15.83;100.00;101424.22;4937870;29;20055;-75
2023/08/05 06:15:58;;;;;;;14.32;11.32;;;;;;;15.89;100.00;101434.19;4938222;29;20083;-76
2023/08/05 06:18:23;;;;;;;14.95;10.70;;;;;;;15.96;100.00;101427.59;4938138;29;20082;-77
2023/08/05 06:20:49;;;;;;;15.32;11.27;;;;;;;16.09;100.00;101449.13;4937945;29;20047;-76
2023/08/05 06:23:15;;;;;;;15.52;11.13;;;;;;;16.08;100.00;101429.25;4937993;29;20059;-76
2023/08/05 06:25:41;;;;;;;15.25;10.82;;;;;;;16.36;100.00;101433.16;4937970;29;20020;-77
2023/08/05 06:28:06;;;;;;;15.05;10.77;;;;;;;16.46;100.00;101420.25;4937644;29;20032;-79
2023/08/05 06:30:32;;;;;;;16.58;10.77;;;;;;;17.07;100.00;101433.66;4937736;29;20035;-76
2023/08/05 06:32:57;;;;;;;16.00;10.38;;;;;;;17.41;100.00;101401.25;4926211;29;20063;-77
2023/08/05 06:35:22;;;;;;;12.88;10.13;;;;;;;18.16;97.72;101438.53;4919606;29;20080;-75
2023/08/05 06:37:48;;;;;;;12.75;9.45;;;;;;;18.52;93.81;101405.78;4919149;29;20079;-75
2023/08/05 06:40:13;;;;;;;13.00;9.18;;;;;;;18.80;91.04;101406.84;4918421;29;20070;-75
2023/08/05 06:42:38;;;;;;;12.82;9.10;;;;;;;18.72;90.29;101407.53;4918559;29;20131;-75
2023/08/05 06:45:04;;;;;;;11.88;9.18;;;;;;;18.86;89.70;101440.31;4918256;29;20024;-76
2023/08/05 06:47:31;;;;;;;11.48;9.20;;;;;;;18.63;90.68;101413.53;4918874;29;20107;-76
2023/08/05 06:49:57;;;;;;;14.80;10.10;;;;;;;18.65;90.74;101426.50;4917143;29;20032;-76
2023/08/05 06:52:23;;;;;;;11.38;8.93;;;;;;;18.70;88.52;101435.59;4901224;29;20047;-76
2023/08/05 06:54:48;;;;;;;12.93;9.63;;;;;;;18.68;89.20;101426.22;4918543;29;20035;-76
2023/08/05 06:57:14;;;;;;;13.13;9.23;;;;;;;18.67;89.24;101427.19;4901390;29;20036;-76
2023/08/05 06:59:39;;;;;;;13.18;8.88;;;;;;;18.60;89.15;101419.84;4918198;29;20051;-76
2023/08/05 07:02:05;;;;;;;12.68;8.98;;;;;;;18.59;90.77;101406.91;4918261;29;20046;-76
2023/08/05 07:04:31;;;;;;;11.48;9.35;;;;;;;18.69;89.91;101422.66;4918215;29;20028;-75
2023/08/05 07:06:57;;;;;;;12.35;8.23;;;;;;;18.83;89.66;101404.78;4918160;29;20426;-75
2023/08/05 07:09:22;;;;;;;11.68;8.90;;;;;;;19.61;84.85;101404.78;4917739;29;20087;-74
2023/08/05 07:11:48;;;;;;;11.98;8.05;;;;;;;19.96;83.67;101406.72;4918124;29;20079;-74
2023/08/05 07:14:19;;;;;;;13.07;7.80;;;;;;;20.10;83.27;101395.78;4917970;29;20664;-74
2023/08/05 07:16:44;;;;;;;11.32;8.20;;;;;;;20.10;82.17;101403.66;4917985;29;20393;-75
2023/08/05 07:19:10;;;;;;;11.30;8.15;;;;;;;20.01;80.90;101396.66;4918004;29;20055;-75
2023/08/05 07:21:35;;;;;;;10.75;7.63;;;;;;;19.94;82.06;101391.16;4917751;29;20052;-74
2023/08/05 07:24:01;;;;;;;10.77;7.35;;;;;;;20.01;79.44;101399.28;4918063;29;20032;-75
2023/08/05 07:26:26;;;;;;;10.68;7.25;;;;;;;19.88;78.30;101377.81;4917791;29;20078;-74
2023/08/05 07:28:51;;;;;;;11.13;6.60;;;;;;;19.84;78.27;101398.22;4917706;29;20078;-74
2023/08/05 07:31:17;;;;;;;8.65;6.55;;;;;;;19.69;80.02;101383.94;4917605;29;20099;-74
2023/08/05 07:33:43;;;;;;;9.57;6.28;;;;;;;19.79;80.94;101382.13;4917623;29;20032;-72
2023/08/05 07:36:12;;;;;;;9.95;6.45;;;;;;;19.88;78.15;101388.31;4916987;29;20028;-75
2023/08/05 07:38:42;;;;;;;8.95;6.43;;;;;;;19.99;77.78;101403.84;4918506;29;20117;-78
2023/08/05 07:41:07;;;;;;;10.05;6.20;;;;;;;19.90;77.74;101394.22;4900846;29;20035;-77
2023/08/05 07:43:35;;;;;;;9.18;5.95;;;;;;;19.81;77.30;101400.31;4917528;29;20028;-76
2023/08/05 07:46:02;;;;;;;8.77;5.53;;;;;;;19.83;80.39;101393.13;4917509;29;20028;-75
2023/08/05 07:48:30;;;;;;;9.23;5.35;;;;;;;19.74;78.54;101385.16;4917485;29;20047;-76
2023/08/05 07:50:55;;;;;;;8.48;5.43;;;;;;;19.68;78.62;101384.91;4917330;29;20035;-77
2023/08/05 07:53:23;;;;;;;7.28;5.45;;;;;;;19.60;77.85;101380.38;4917487;29;20390;-78
2023/08/05 07:55:49;;;;;;;8.82;5.22;;;;;;;19.57;79.57;101378.06;4917292;29;20084;-79
2023/08/05 07:58:15;;;;;;;8.70;5.00;;;;;;;19.56;80.27;101379.00;4917089;29;20490;-75
2023/08/05 08:00:41;;;;;;;10.10;5.25;;;;;;;19.52;79.98;101371.53;4917139;29;20533;-76
2023/08/05 08:03:06;;;;;;;7.47;5.03;;;;;;;19.47;78.98;101349.22;4917510;29;20020;-76
2023/08/05 08:05:31;;;;;;;8.10;5.30;;;;;;;19.38;79.90;101331.72;4917317;29;20083;-76
2023/08/05 08:07:57;;;;;;;7.07;4.63;;;;;;;19.47;79.56;101324.81;4917325;29;20043;-76
2023/08/05 08:10:25;;;;;;;8.43;4.50;;;;;;;19.83;78.08;101345.94;4917305;29;20039;-77
2023/08/05 08:12:51;;;;;;;7.05;4.70;;;;;;;19.82;78.43;101324.16;4917162;29;20032;-77
2023/08/05 08:15:17;;;;;;;7.53;4.50;;;;;;;20.12;78.17;101348.44;4916822;29;20070;-76
2023/08/05 08:17:42;;;;;;;7.63;4.68;;;;;;;20.24;75.40;101350.72;4925013;29;20629;-75
2023/08/05 08:20:08;;;;;;;10.60;5.38;;;;;;;20.12;75.11;101336.16;4936578;29;20115;-76
2023/08/05 08:22:34;;;;;;;7.47;4.93;;;;;;;20.21;74.98;101337.09;4935762;29;20066;-78
2023/08/05 08:24:59;;;;;;;8.65;4.85;;;;;;;20.24;74.73;101340.22;4936004;29;20058;-76
2023/08/05 08:27:24;;;;;;;7.00;4.95;;;;;;;20.25;74.92;101331.38;4936024;29;20024;-77
2023/08/05 08:29:49;;;;;;;8.25;5.35;;;;;;;20.35;73.98;101326.06;4935717;29;20027;-76
2023/08/05 08:32:15;;;;;;;9.43;5.07;;;;;;;20.25;74.91;101307.78;4935803;29;20070;-75
2023/08/05 08:34:40;;;;;;;9.60;4.95;;;;;;;20.25;74.41;101320.06;4935672;29;20088;-75
2023/08/05 08:37:05;;;;;;;5.80;4.13;;;;;;;20.42;75.22;101315.81;4935702;29;20059;-76
2023/08/05 08:39:31;;;;;;;9.10;4.68;;;;;;;20.39;73.12;101274.16;4935675;29;20028;-75
2023/08/05 08:41:56;;;;;;;6.70;4.15;;;;;;;20.77;75.53;101292.25;4934098;29;20044;-77
2023/08/05 08:44:22;;;;;;;7.38;4.38;;;;;;;20.97;74.15;101297.34;4933581;29;20579;-76
2023/08/05 08:46:51;;;;;;;6.82;4.20;;;;;;;21.02;72.18;101303.75;4935427;29;20091;-74
2023/08/05 08:49:19;;;;;;;6.55;3.60;;;;;;;20.99;70.87;101279.63;4934072;29;20584;-78
2023/08/05 08:51:47;;;;;;;4.95;3.30;;;;;;;21.30;69.16;101293.97;4935495;29;20050;-75
2023/08/05 08:54:16;;;;;;;5.72;3.08;;;;;;;21.39;68.35;101294.84;4935571;29;20027;-78
2023/08/05 08:56:41;;;;;;;5.10;3.00;;;;;;;21.45;67.45;101273.22;4935329;29;20027;-77
2023/08/05 08:59:07;;;;;;;6.28;3.42;;;;;;;21.47;67.52;101271.25;4935297;29;20046;-76
2023/08/05 09:01:38;;;;;;;5.00;2.50;;;;;;;21.42;68.00;101260.38;4935281;29;20054;-76
2023/08/05 09:04:05;;;;;;;;;;;;;;;21.99;68.99;101284.25;4935809;29;20114;-79
2023/08/05 09:06:30;;;;;;;6.25;3.33;;;;;;;21.98;65.69;101277.34;4935369;29;19922;-72
2023/08/05 09:08:56;;;;;;;5.78;2.78;;;;;;;21.99;64.59;101273.75;4935365;29;20032;-78
2023/08/05 09:11:21;;;;;;;3.25;2.40;;;;;;;21.89;62.56;101249.38;4935273;29;20070;-79
2023/08/05 09:13:46;;;;;;;4.03;2.03;;;;;;;21.95;62.86;101268.00;4935293;29;20055;-78
2023/08/05 09:16:13;;;;;;;4.32;1.88;;;;;;;21.71;61.94;101247.69;4934987;29;20501;-80
2023/08/05 09:19:05;;;;;;;4.00;1.65;;;;;;;21.72;64.90;101251.13;4935224;29;20039;-78
2023/08/05 09:21:30;;;;;;;4.70;2.22;;;;;;;21.35;63.71;101251.47;4931275;29;20051;-77
2023/08/05 09:23:58;;;;;;;4.55;2.22;;;;;;;21.21;65.73;101250.22;4935249;29;20024;-80
2023/08/05 09:26:28;;;;;;;6.60;2.70;;;;;;;21.12;66.75;101223.06;4935276;29;20055;-80
2023/08/05 09:28:57;;;;;;;4.13;2.58;;;;;;;21.21;65.88;101244.97;4935214;29;20486;-79
2023/08/05 09:31:23;;;;;;;5.72;2.60;;;;;;;21.26;65.81;101229.59;4936316;29;20074;-81
2023/08/05 09:33:49;;;;;;;3.70;2.55;;;;;;;21.41;66.26;101204.38;4939068;29;20031;-81
2023/08/05 09:36:15;;;;;;;3.50;2.25;;;;;;;21.71;66.59;101196.91;4939043;29;20393;-78
2023/08/05 09:38:41;;;;;;;3.42;2.20;;;;;;;22.11;64.32;101216.44;4938806;29;20028;-78
2023/08/05 09:41:07;;;;;;;4.55;2.47;;;;;;;22.19;62.59;101200.66;4938777;29;20504;-79
2023/08/05 09:43:35;;;;;;;3.15;2.35;;;;;;;22.25;64.55;101192.13;4938609;29;20036;-78
2023/08/05 09:46:05;;;;;;;5.75;2.95;;;;;;;22.46;62.04;101210.88;4938754;29;20031;-79
2023/08/05 09:48:40;;;;;;;6.00;3.00;;;;;;;22.49;62.43;101201.81;4938864;29;20034;-78
2023/08/05 09:51:06;;;;;;;4.28;2.70;;;;;;;22.11;62.54;101196.19;4938806;29;20038;-78
2023/08/05 09:53:35;;;;;;;5.65;2.70;;;;;;;21.86;62.97;101197.97;4938658;29;20027;-78
2023/08/05 09:56:01;;;;;;;5.65;3.05;;;;;;;21.47;64.30;101190.59;4938541;29;20126;-78
2023/08/05 09:58:27;;;;;;;7.35;3.13;;;;;;;21.01;66.37;101191.81;4921710;29;20175;-78
2023/08/05 10:00:55;;;;;;;4.07;2.67;;;;;;;20.77;67.99;101182.00;4937202;29;20094;-78
2023/08/05 10:03:21;;;;;;;5.05;2.97;;;;;;;20.72;68.44;101183.44;4938518;29;20106;-78
2023/08/05 10:05:47;;;;;;;5.35;3.03;;;;;;;20.43;69.30;101162.72;4938434;29;20028;-78
2023/08/05 10:08:16;;;;;;;5.80;3.42;;;;;;;20.58;71.40;101182.22;4938367;29;20083;-77
2023/08/05 10:10:42;;;;;;;4.43;2.55;;;;;;;20.79;70.82;101153.81;4920880;29;20494;-80
2023/08/05 10:13:20;;;;;;;6.05;3.47;;;;;;;21.14;68.36;101146.78;4938411;29;20363;-79
2023/08/05 10:15:52;;;;;;;6.88;3.50;;;;;;;21.55;67.86;101165.34;4938085;29;20031;-77
2023/08/05 10:18:18;;;;;;;5.97;3.20;;;;;;;21.56;65.42;101145.97;4936871;29;20405;-78
2023/08/05 10:20:50;;;;;;;6.90;3.20;;;;;;;21.62;65.23;101161.91;4936546;29;20115;-77
2023/08/05 10:23:16;;;;;;;6.80;3.25;;;;;;;21.43;65.43;101160.38;4938138;29;20111;-77
2023/08/05 10:25:42;;;;;;;4.72;3.22;;;;;;;21.34;66.05;101142.94;4937989;29;20481;-76
2023/08/05 10:28:09;;;;;;;7.35;3.40;;;;;;;21.37;65.78;101150.50;4938204;29;20127;-77
2023/08/05 10:30:42;;;;;;;6.82;3.63;;;;;;;21.22;66.58;101135.47;4937886;29;20075;-76
2023/08/05 10:33:08;;;;;;;5.78;3.10;;;;;;;21.50;67.84;101151.84;4938042;29;20047;-76
2023/08/05 10:35:40;;;;;;;6.05;3.45;;;;;;;21.45;66.23;101147.09;4937806;29;20071;-77
2023/08/05 10:38:19;;;;;;;6.93;3.25;;;;;;;21.26;67.43;101135.03;4937825;29;20052;-77
2023/08/05 10:41:03;;;;;;;5.35;3.88;;;;;;;20.86;68.62;101133.84;4937893;29;20087;-78
2023/08/05 10:43:31;;;;;;;5.93;4.10;;;;;;;20.41;70.13;101147.13;4937484;29;20167;-77
2023/08/05 10:46:00;;;;;;;6.55;4.32;;;;;;;20.25;71.62;101149.59;4937749;29;20040;-77
2023/08/05 10:48:31;;;;;;;6.15;4.50;;;;;;;20.41;71.08;101143.66;4937622;29;20028;-72
2023/08/05 10:51:08;;;;;;;8.30;4.35;;;;;;;20.66;70.06;101147.34;4937622;29;20162;-73
2023/08/05 10:53:34;;;;;;;7.10;4.47;;;;;;;20.42;69.92;101124.34;4937544;29;20031;-74
2023/08/05 10:56:00;;;;;;;7.10;4.32;;;;;;;20.50;69.73;101134.91;4937506;29;20111;-73
2023/08/05 10:58:29;;;;;;;7.13;4.20;;;;;;;20.56;70.84;101140.38;4937709;29;20175;-73
2023/08/05 11:01:05;;;;;;;7.03;4.30;;;;;;;20.61;69.67;101143.34;4937392;29;20075;-72
2023/08/05 11:03:52;;;;;;;6.47;4.53;;;;;;;20.81;69.93;101141.34;4937144;29;20535;-72
2023/08/05 11:06:25;;;;;;;5.88;4.03;;;;;;;20.69;69.76;101121.59;4937311;29;20028;-72
2023/08/05 11:08:51;;;;;;;8.05;4.22;;;;;;;20.91;67.49;101130.72;4937318;29;20032;-72
2023/08/05 11:11:16;;;;;;;5.90;4.05;;;;;;;20.94;67.61;101104.16;4935695;29;20393;-73